Time;durP1;ratioP1;P1;durP2;ratioP2;P2;SDS_P1;SDS_P2;PMS_P1;PMS_P2;Temp;Humidity;BMP_temperature;BMP_pressure;BME280_temperature;BME280_humidity;BME280_pressure;Samples;Min_cycle;Max_cycle;Signal;HPM_P1;HPM_P2
2023/06/19 00:01:08;;;;;;;4.70;4.20;;;;;;;27.67;53.37;101049.81;107197;1267;25477;-50
2023/06/19 00:03:36;;;;;;;6.50;4.30;;;;;;;27.67;53.76;101054.33;107090;1264;25340;-49
2023/06/19 00:06:05;;;;;;;6.00;4.30;;;;;;;27.67;54.05;101055.91;107095;1267;25395;-49
2023/06/19 00:08:34;;;;;;;12.30;6.00;;;;;;;27.66;54.33;101050.28;107100;1260;25478;-49
2023/06/19 00:11:01;;;;;;;10.40;6.40;;;;;;;27.66;54.40;101050.85;106978;1254;25332;-50
2023/06/19 00:13:28;;;;;;;10.20;5.50;;;;;;;27.65;54.71;101052.14;107095;1254;25367;-49
2023/06/19 00:16:00;;;;;;;5.20;4.50;;;;;;;27.66;54.97;101056.20;107079;1257;25443;-50
2023/06/19 00:18:28;;;;;;;6.20;4.60;;;;;;;27.65;54.98;101059.27;107149;1261;25337;-50
2023/06/19 00:20:56;;;;;;;7.10;4.50;;;;;;;27.66;55.03;101056.73;107024;1254;25318;-50
2023/06/19 00:23:26;;;;;;;4.90;4.40;;;;;;;27.67;55.06;101059.16;106733;1267;24060;-49
2023/06/19 00:25:53;;;;;;;5.10;4.40;;;;;;;27.67;55.05;101056.99;107103;1264;25328;-50
2023/06/19 00:28:21;;;;;;;5.30;4.10;;;;;;;27.67;54.62;101062.65;106842;1267;25340;-50
2023/06/19 00:30:48;;;;;;;5.10;4.30;;;;;;;27.69;54.35;101065.22;107104;1263;25328;-51
2023/06/19 00:33:15;;;;;;;5.80;4.10;;;;;;;27.68;53.28;101065.80;107055;1260;24259;-49
2023/06/19 00:35:43;;;;;;;5.00;4.50;;;;;;;27.66;52.51;101067.73;107054;1257;25315;-50
2023/06/19 00:38:11;;;;;;;5.00;4.50;;;;;;;27.65;52.02;101072.66;107140;1257;25376;-49
2023/06/19 00:40:38;;;;;;;4.50;4.10;;;;;;;27.64;51.37;101073.27;107084;1263;25338;-51
2023/06/19 00:43:06;;;;;;;6.60;4.70;;;;;;;27.61;51.17;101081.38;107082;1263;22549;-49
2023/06/19 00:45:33;;;;;;;8.00;4.60;;;;;;;27.57;51.19;101087.82;107062;1260;25338;-50
2023/06/19 00:48:00;;;;;;;6.00;5.40;;;;;;;27.52;51.38;101089.13;107059;1267;25481;-49
2023/06/19 00:50:29;;;;;;;7.30;5.00;;;;;;;27.48;51.56;101091.48;107173;1263;25347;-49
2023/06/19 00:52:58;;;;;;;9.20;4.60;;;;;;;27.42;51.57;101090.74;107115;1261;22550;-49
2023/06/19 00:55:28;;;;;;;6.30;4.80;;;;;;;27.36;51.87;101095.89;106886;1263;22523;-49
2023/06/19 00:57:55;;;;;;;7.10;4.60;;;;;;;27.30;52.08;101097.08;106906;1267;25371;-50
2023/06/19 01:00:22;;;;;;;8.80;4.80;;;;;;;27.24;52.58;101093.16;107064;1261;22540;-50
2023/06/19 01:02:50;;;;;;;9.10;5.10;;;;;;;27.19;53.10;101094.30;107089;1257;25355;-51
2023/06/19 01:05:19;;;;;;;6.20;4.90;;;;;;;27.15;54.06;101095.21;107026;1257;25331;-55
2023/06/19 01:08:13;;;;;;;6.70;5.10;;;;;;;27.11;54.71;101096.60;106643;1270;22659;-49
2023/06/19 01:10:43;;;;;;;7.50;5.40;;;;;;;27.06;55.58;101092.59;106938;1253;25318;-52
2023/06/19 01:13:15;;;;;;;6.80;5.70;;;;;;;26.97;55.96;101096.02;107142;1258;22762;-55
2023/06/19 01:15:42;;;;;;;8.50;5.50;;;;;;;26.90;55.71;101095.02;106826;1267;25421;-50
2023/06/19 01:18:11;;;;;;;11.50;6.40;;;;;;;26.84;55.76;101097.11;107087;1257;25347;-51
2023/06/19 01:20:38;;;;;;;7.90;6.40;;;;;;;26.80;55.40;101093.19;106989;1266;22518;-50
2023/06/19 01:23:10;;;;;;;8.30;6.10;;;;;;;26.75;55.25;101094.86;107150;1260;22525;-48
2023/06/19 01:25:37;;;;;;;6.20;5.60;;;;;;;26.70;55.59;101095.82;106769;1260;22633;-49
2023/06/19 01:28:09;;;;;;;5.80;5.20;;;;;;;26.68;56.00;101090.67;106819;1263;22637;-49
2023/06/19 01:30:37;;;;;;;7.70;5.50;;;;;;;26.66;56.02;101094.41;107141;1263;25462;-49
2023/06/19 01:33:20;;;;;;;6.50;5.70;;;;;;;26.62;55.73;101090.40;106831;1260;22585;-48
2023/06/19 01:35:48;;;;;;;6.60;5.50;;;;;;;26.59;55.74;101090.70;107094;1260;22525;-48
2023/06/19 01:38:16;;;;;;;7.50;5.30;;;;;;;26.57;56.19;101089.61;106861;1269;25331;-50
2023/06/19 01:40:42;;;;;;;6.80;5.40;;;;;;;26.54;56.34;101091.26;107123;1267;25386;-48
2023/06/19 01:43:10;;;;;;;6.50;5.10;;;;;;;26.51;56.67;101096.52;107092;1266;25379;-48
2023/06/19 01:45:37;;;;;;;6.30;5.50;;;;;;;26.48;56.90;101101.02;107234;1266;24209;-51
2023/06/19 01:48:05;;;;;;;7.30;5.70;;;;;;;26.46;57.21;101103.52;106830;1267;22552;-48
2023/06/19 01:50:34;;;;;;;8.20;5.60;;;;;;;26.42;57.20;101106.48;107198;1263;25318;-48
2023/06/19 01:53:00;;;;;;;7.80;6.00;;;;;;;26.39;57.63;101107.27;107055;1254;25386;-51
2023/06/19 01:55:28;;;;;;;7.60;6.50;;;;;;;26.37;57.92;101108.55;107085;1264;25337;-52
2023/06/19 01:57:56;;;;;;;6.90;6.20;;;;;;;26.34;58.19;101108.95;106825;1263;24252;-52
2023/06/19 02:00:23;;;;;;;9.20;6.50;;;;;;;26.32;58.39;101111.77;106978;1266;23913;-50
2023/06/19 02:02:51;;;;;;;7.70;6.40;;;;;;;26.30;58.65;101115.13;106827;1264;25420;-50
2023/06/19 02:05:18;;;;;;;7.40;6.70;;;;;;;26.28;58.55;101120.13;106887;1264;25309;-50
2023/06/19 02:07:46;;;;;;;8.30;6.10;;;;;;;26.26;58.74;101123.14;107087;1263;25343;-50
2023/06/19 02:10:16;;;;;;;9.00;6.10;;;;;;;26.24;58.94;101125.30;107080;1263;25343;-51
2023/06/19 02:12:43;;;;;;;7.90;6.30;;;;;;;26.23;58.91;101127.53;107128;1250;25318;-51
2023/06/19 02:15:10;;;;;;;7.70;6.20;;;;;;;26.21;58.74;101123.02;107088;1267;25332;-52
2023/06/19 02:17:38;;;;;;;8.20;6.20;;;;;;;26.22;58.88;101128.30;107127;1257;25315;-50
2023/06/19 02:20:11;;;;;;;7.40;6.40;;;;;;;26.23;58.72;101130.91;107140;1254;25347;-50
2023/06/19 02:22:38;;;;;;;10.30;6.10;;;;;;;26.22;58.55;101129.49;107124;1260;22578;-50
2023/06/19 02:25:06;;;;;;;7.90;6.60;;;;;;;26.21;58.58;101131.93;107101;1257;25340;-50
2023/06/19 02:27:33;;;;;;;8.80;6.40;;;;;;;26.20;58.40;101131.30;107059;1257;25340;-50
2023/06/19 02:30:01;;;;;;;8.80;6.50;;;;;;;26.17;58.38;101129.90;107022;1254;25504;-50
2023/06/19 02:32:29;;;;;;;7.20;6.10;;;;;;;26.14;58.04;101126.97;106885;1254;25363;-50
2023/06/19 02:34:56;;;;;;;7.20;6.50;;;;;;;26.12;58.01;101129.13;107041;1261;25389;-49
2023/06/19 02:37:23;;;;;;;10.60;6.70;;;;;;;26.10;57.89;101131.41;107009;1267;25390;-50
2023/06/19 02:39:50;;;;;;;9.30;6.60;;;;;;;26.07;58.13;101133.60;106843;1267;22527;-50
2023/06/19 02:42:17;;;;;;;8.20;6.30;;;;;;;26.04;58.21;101134.32;107143;1266;25414;-50
2023/06/19 02:44:45;;;;;;;8.00;5.50;;;;;;;26.02;58.25;101135.43;106755;1267;25353;-50
2023/06/19 02:47:12;;;;;;;8.00;6.00;;;;;;;25.99;58.16;101140.80;107084;1260;25319;-50
2023/06/19 02:49:39;;;;;;;6.30;5.70;;;;;;;25.97;58.27;101140.94;106737;1266;25407;-50
2023/06/19 02:52:07;;;;;;;8.80;6.50;;;;;;;25.96;58.24;101143.54;107064;1252;25439;-50
2023/06/19 02:54:35;;;;;;;6.70;6.10;;;;;;;25.94;58.50;101143.67;106805;1258;22523;-51
2023/06/19 02:57:02;;;;;;;11.20;6.40;;;;;;;25.92;58.32;101141.58;107077;1260;22554;-50
2023/06/19 02:59:29;;;;;;;9.10;6.90;;;;;;;25.89;58.35;101137.49;107018;1263;25331;-50
2023/06/19 03:01:56;;;;;;;8.80;6.00;;;;;;;25.88;58.22;101132.84;107085;1260;25383;-50
2023/06/19 03:04:23;;;;;;;6.70;5.50;;;;;;;25.86;58.28;101134.55;106852;1266;25356;-51
2023/06/19 03:06:54;;;;;;;;;;;;;;;25.83;58.42;101137.05;106976;1266;25324;-49
2023/06/19 03:09:21;;;;;;;12.20;7.10;;;;;;;25.81;58.07;101139.55;107080;1263;25332;-49
2023/06/19 03:11:48;;;;;;;8.00;6.20;;;;;;;25.77;58.25;101145.52;106850;1266;25318;-49
2023/06/19 03:14:15;;;;;;;10.30;7.50;;;;;;;25.75;58.98;101154.27;106758;1260;25405;-50
2023/06/19 03:16:42;;;;;;;19.40;8.90;;;;;;;25.73;60.05;101166.09;106923;1266;25338;-50
2023/06/19 03:19:10;;;;;;;22.10;9.90;;;;;;;25.70;60.58;101167.44;106906;1264;25386;-52
2023/06/19 03:21:38;;;;;;;20.20;9.60;;;;;;;25.62;61.03;101164.48;107063;1263;25357;-52
2023/06/19 03:24:06;;;;;;;22.70;9.40;;;;;;;25.46;61.51;101162.08;107075;1253;25553;-50
2023/06/19 03:26:34;;;;;;;15.30;8.10;;;;;;;25.26;62.18;101153.31;106839;1269;25377;-54
2023/06/19 03:29:02;;;;;;;16.50;7.80;;;;;;;25.06;62.73;101154.98;107098;1254;25356;-57
2023/06/19 03:31:36;;;;;;;18.60;8.50;;;;;;;24.89;63.28;101152.58;107122;1263;25318;-57
2023/06/19 03:34:03;;;;;;;17.00;8.50;;;;;;;24.77;63.91;101160.56;107059;1267;25475;-56
2023/06/19 03:36:31;;;;;;;13.70;8.50;;;;;;;24.69;64.76;101155.10;107141;1263;25337;-55
2023/06/19 03:39:05;;;;;;;14.00;8.00;;;;;;;24.62;65.03;101156.70;107060;1255;22527;-53
2023/06/19 03:41:32;;;;;;;12.40;7.70;;;;;;;24.59;65.67;101160.86;107070;1263;25331;-53
2023/06/19 03:44:00;;;;;;;11.20;8.30;;;;;;;24.57;65.78;101166.82;107027;1260;25376;-52
2023/06/19 03:46:28;;;;;;;12.00;7.80;;;;;;;24.56;65.76;101169.56;107069;1263;25350;-51
2023/06/19 03:48:55;;;;;;;8.20;6.60;;;;;;;24.55;65.80;101163.95;106846;1266;25366;-50
2023/06/19 03:51:22;;;;;;;10.00;7.50;;;;;;;24.55;65.44;101155.47;107078;1263;25437;-49
2023/06/19 03:53:49;;;;;;;8.40;6.00;;;;;;;24.56;65.24;101158.60;107125;1266;25376;-49
2023/06/19 03:56:18;;;;;;;8.40;5.80;;;;;;;24.56;64.67;101157.56;106887;1266;25332;-50
2023/06/19 03:58:45;;;;;;;6.10;5.40;;;;;;;24.57;64.15;101154.44;107083;1267;25392;-50
2023/06/19 04:01:12;;;;;;;5.50;5.00;;;;;;;24.57;63.22;101157.98;107107;1263;25315;-50
2023/06/19 04:03:39;;;;;;;6.20;5.20;;;;;;;24.57;62.90;101166.29;107053;1261;25334;-51
2023/06/19 04:06:08;;;;;;;6.60;5.50;;;;;;;24.58;62.49;101172.42;107136;1260;22620;-50
2023/06/19 04:08:38;;;;;;;7.40;5.60;;;;;;;24.58;62.53;101178.47;107117;1263;25353;-50
2023/06/19 04:11:05;;;;;;;11.10;6.40;;;;;;;24.58;63.00;101177.95;106882;1260;25398;-50
2023/06/19 04:13:33;;;;;;;15.30;6.90;;;;;;;24.57;63.82;101177.69;107137;1263;25340;-51
2023/06/19 04:16:00;;;;;;;14.30;7.40;;;;;;;24.51;64.36;101165.00;107098;1261;25429;-50
2023/06/19 04:18:29;;;;;;;17.20;8.10;;;;;;;24.40;65.01;101158.75;107038;1263;25350;-55
2023/06/19 04:20:56;;;;;;;17.30;8.80;;;;;;;24.26;65.48;101159.56;107061;1263;25442;-55
2023/06/19 04:23:23;;;;;;;19.50;8.30;;;;;;;24.14;65.68;101167.85;107169;1264;25356;-55
2023/06/19 04:25:50;;;;;;;14.30;7.20;;;;;;;24.08;66.46;101181.41;107111;1263;25477;-53
2023/06/19 04:28:17;;;;;;;14.10;8.00;;;;;;;24.05;66.15;101185.89;106859;1251;25332;-53
2023/06/19 04:30:45;;;;;;;12.70;7.40;;;;;;;24.02;66.46;101193.48;106935;1260;25520;-52
2023/06/19 04:33:12;;;;;;;14.50;8.40;;;;;;;24.02;66.87;101202.01;106907;1266;25356;-52
2023/06/19 04:35:42;;;;;;;14.50;7.40;;;;;;;24.01;66.94;101213.10;106947;1264;25346;-51
2023/06/19 04:38:09;;;;;;;17.00;9.00;;;;;;;23.97;66.82;101217.06;107086;1263;25398;-51
2023/06/19 04:40:36;;;;;;;16.50;8.90;;;;;;;23.92;67.01;101224.48;107159;1253;26496;-51
2023/06/19 04:43:05;;;;;;;13.90;8.80;;;;;;;23.90;67.62;101230.64;107026;1253;25328;-50
2023/06/19 04:45:32;;;;;;;18.80;9.30;;;;;;;23.86;67.76;101237.67;107003;1263;25356;-50
2023/06/19 04:48:02;;;;;;;21.00;9.20;;;;;;;23.85;67.63;101237.06;107004;1263;25429;-49
2023/06/19 04:50:30;;;;;;;9.80;5.30;;;;;;;23.84;67.85;101237.82;106850;1256;27067;-49
2023/06/19 04:52:57;;;;;;;8.40;4.10;;;;;;;23.82;66.41;101239.21;106821;1263;25356;-49
2023/06/19 04:55:25;;;;;;;5.20;4.60;;;;;;;23.80;66.29;101237.77;106795;1263;25567;-51
2023/06/19 04:57:52;;;;;;;8.30;4.90;;;;;;;23.77;65.88;101236.20;106779;1253;25338;-52
2023/06/19 05:00:19;;;;;;;7.10;5.50;;;;;;;23.79;65.57;101246.36;106667;1269;25405;-49
2023/06/19 05:02:47;;;;;;;7.60;5.50;;;;;;;23.86;64.60;101249.75;106986;1260;22525;-49
2023/06/19 05:05:15;;;;;;;10.50;6.10;;;;;;;23.90;64.13;101248.63;106841;1256;24189;-50
2023/06/19 05:07:42;;;;;;;8.00;6.00;;;;;;;23.94;63.74;101246.52;107180;1263;22522;-50
2023/06/19 05:10:10;;;;;;;8.30;6.20;;;;;;;23.99;63.26;101246.16;107057;1260;25468;-50
2023/06/19 05:12:37;;;;;;;7.20;5.80;;;;;;;24.04;63.01;101244.05;107054;1254;22652;-49
2023/06/19 05:15:05;;;;;;;5.80;5.30;;;;;;;24.09;62.81;101251.00;107160;1256;25382;-50
2023/06/19 05:17:32;;;;;;;7.10;5.80;;;;;;;24.12;62.82;101256.59;107144;1258;24196;-50
2023/06/19 05:19:59;;;;;;;7.50;5.40;;;;;;;24.18;63.12;101262.39;106939;1263;25478;-50
2023/06/19 05:22:27;;;;;;;7.60;5.20;;;;;;;24.25;63.07;101259.75;106957;1254;25481;-49
2023/06/19 05:24:54;;;;;;;6.90;5.40;;;;;;;24.33;62.71;101256.96;107075;1263;25440;-50
2023/06/19 05:27:21;;;;;;;7.40;4.60;;;;;;;24.38;62.63;101254.23;106947;1253;25366;-49
2023/06/19 05:29:48;;;;;;;8.00;5.30;;;;;;;24.44;62.55;101252.92;107086;1263;25383;-50
2023/06/19 05:32:17;;;;;;;5.70;3.90;;;;;;;24.49;62.49;101255.23;106946;1257;24635;-50
2023/06/19 05:34:44;;;;;;;6.90;3.30;;;;;;;24.53;62.21;101258.84;107173;1263;25356;-50
2023/06/19 05:37:11;;;;;;;5.00;2.70;;;;;;;24.55;61.65;101259.58;107110;1261;25356;-49
2023/06/19 05:39:38;;;;;;;3.30;2.80;;;;;;;24.55;61.23;101260.30;106871;1266;25360;-50
2023/06/19 05:42:06;;;;;;;6.80;2.70;;;;;;;24.54;61.01;101258.94;107015;1254;25347;-50
2023/06/19 05:44:33;;;;;;;3.30;2.80;;;;;;;24.52;61.06;101263.53;107170;1263;25347;-50
2023/06/19 05:47:00;;;;;;;3.30;2.90;;;;;;;24.52;61.27;101268.72;107193;1251;22914;-51
2023/06/19 05:49:29;;;;;;;4.30;2.80;;;;;;;24.52;61.30;101265.48;106334;1254;1003083;-50
2023/06/19 05:51:58;;;;;;;3.30;2.80;;;;;;;24.52;61.47;101264.40;107078;1263;25405;-50
2023/06/19 05:54:26;;;;;;;4.40;2.70;;;;;;;24.53;61.55;101268.25;107073;1257;25411;-51
2023/06/19 05:56:53;;;;;;;4.90;3.00;;;;;;;24.53;61.55;101265.75;107141;1263;25334;-51
2023/06/19 05:59:20;;;;;;;4.30;2.90;;;;;;;24.54;61.33;101263.05;107087;1264;25430;-49
2023/06/19 06:01:47;;;;;;;5.20;3.30;;;;;;;24.54;61.50;101260.01;107190;1257;25401;-49
2023/06/19 06:04:14;;;;;;;5.60;3.00;;;;;;;24.55;61.46;101263.68;107095;1263;23247;-49
2023/06/19 06:06:41;;;;;;;5.30;3.30;;;;;;;24.55;61.55;101266.32;107053;1255;22524;-50
2023/06/19 06:09:11;;;;;;;3.20;2.90;;;;;;;24.55;61.35;101270.57;107159;1261;25356;-50
2023/06/19 06:11:38;;;;;;;3.50;3.20;;;;;;;24.54;61.14;101268.39;106864;1257;25340;-51
2023/06/19 06:14:05;;;;;;;3.20;3.00;;;;;;;24.50;60.86;101262.96;107042;1264;25449;-50
2023/06/19 06:16:33;;;;;;;5.80;4.20;;;;;;;24.45;60.95;101262.63;107088;1253;22516;-51
2023/06/19 06:19:00;;;;;;;4.40;3.40;;;;;;;24.41;61.13;101253.67;107017;1265;25478;-50
2023/06/19 06:21:28;;;;;;;4.10;3.70;;;;;;;24.39;61.04;101249.59;107075;1263;25217;-52
2023/06/19 06:23:55;;;;;;;4.60;3.50;;;;;;;24.37;60.97;101250.44;107144;1260;25405;-52
2023/06/19 06:26:22;;;;;;;4.80;3.90;;;;;;;24.36;60.90;101255.33;107077;1256;25365;-51
2023/06/19 06:28:49;;;;;;;4.70;4.30;;;;;;;24.34;61.08;101257.27;106828;1266;25366;-51
2023/06/19 06:31:19;;;;;;;6.20;4.30;;;;;;;24.31;61.17;101257.30;106915;1267;25347;-49
2023/06/19 06:33:46;;;;;;;4.40;4.00;;;;;;;24.30;61.65;101256.12;107106;1263;25328;-51
2023/06/19 06:36:14;;;;;;;5.20;4.30;;;;;;;24.31;61.90;101254.94;107052;1263;25338;-52
2023/06/19 06:38:56;;;;;;;4.30;3.90;;;;;;;24.32;61.95;101254.69;107111;1263;25405;-51
2023/06/19 06:41:23;;;;;;;6.00;4.80;;;;;;;24.34;62.11;101256.17;107002;1267;25346;-50
2023/06/19 06:43:50;;;;;;;5.40;4.50;;;;;;;24.36;62.57;101254.77;106965;1267;25449;-49
2023/06/19 06:46:17;;;;;;;4.80;4.30;;;;;;;24.34;63.14;101256.91;107117;1257;25472;-51
2023/06/19 06:48:44;;;;;;;4.90;4.20;;;;;;;24.35;63.41;101257.18;106919;1257;25344;-51
2023/06/19 06:51:11;;;;;;;5.50;4.30;;;;;;;24.38;63.28;101256.04;107049;1257;25468;-51
2023/06/19 06:53:38;;;;;;;6.10;4.20;;;;;;;24.39;62.82;101258.61;107008;1257;25350;-52
2023/06/19 06:56:05;;;;;;;4.90;4.30;;;;;;;24.37;62.76;101262.85;106934;1260;22535;-50
2023/06/19 06:58:33;;;;;;;5.00;4.20;;;;;;;24.36;62.92;101262.20;106693;1266;22610;-50
2023/06/19 07:01:00;;;;;;;4.50;4.10;;;;;;;24.37;62.94;101266.63;106932;1262;25386;-50
2023/06/19 07:03:29;;;;;;;5.30;4.50;;;;;;;24.35;62.62;101266.02;106886;1260;25481;-50
2023/06/19 07:05:57;;;;;;;7.00;4.40;;;;;;;24.28;62.69;101268.80;106858;1262;25356;-51
2023/06/19 07:08:24;;;;;;;4.70;4.20;;;;;;;24.22;63.03;101263.55;106056;1259;1002939;-50
2023/06/19 07:10:51;;;;;;;5.00;4.20;;;;;;;24.20;63.44;101265.44;106989;1253;25469;-50
2023/06/19 07:13:19;;;;;;;7.50;4.30;;;;;;;24.22;63.59;101267.30;106883;1263;25436;-50
2023/06/19 07:15:46;;;;;;;5.00;4.20;;;;;;;24.22;63.78;101266.71;106827;1266;25405;-51
2023/06/19 07:18:13;;;;;;;4.90;4.50;;;;;;;24.23;63.80;101264.55;107047;1263;25332;-50
2023/06/19 07:20:40;;;;;;;5.00;4.30;;;;;;;24.24;64.12;101263.34;107074;1263;25356;-51
2023/06/19 07:23:07;;;;;;;6.70;4.70;;;;;;;24.25;64.12;101262.75;107090;1260;25570;-50
2023/06/19 07:25:34;;;;;;;6.50;4.80;;;;;;;24.27;64.20;101265.02;107162;1263;25369;-50
2023/06/19 07:28:01;;;;;;;8.60;5.30;;;;;;;24.32;64.21;101263.97;107154;1263;25468;-51
2023/06/19 07:30:28;;;;;;;6.70;5.30;;;;;;;24.34;63.69;101270.86;107096;1260;24231;-51
2023/06/19 07:32:55;;;;;;;6.00;5.10;;;;;;;24.33;63.87;101280.36;107062;1267;25407;-50
2023/06/19 07:35:22;;;;;;;6.30;4.90;;;;;;;24.30;63.70;101286.59;107116;1263;25332;-51
2023/06/19 07:37:49;;;;;;;5.60;5.10;;;;;;;24.27;63.52;101284.98;106858;1266;22533;-51
2023/06/19 07:40:16;;;;;;;5.20;4.70;;;;;;;24.25;63.81;101286.75;106849;1263;25392;-52
2023/06/19 07:42:43;;;;;;;6.70;5.00;;;;;;;24.24;64.27;101291.39;107112;1264;25353;-50
2023/06/19 07:45:12;;;;;;;5.60;5.00;;;;;;;24.28;64.81;101287.08;107006;1260;25475;-52
2023/06/19 07:47:39;;;;;;;6.80;5.50;;;;;;;24.31;65.66;101290.08;107128;1260;25413;-51
2023/06/19 07:50:07;;;;;;;6.50;5.40;;;;;;;24.30;66.46;101291.40;107131;1251;24024;-51
2023/06/19 07:52:34;;;;;;;5.90;5.30;;;;;;;24.28;66.99;101292.61;106873;1269;25341;-52
2023/06/19 07:55:02;;;;;;;6.70;6.00;;;;;;;24.24;67.43;101291.89;106801;1269;25375;-51
2023/06/19 07:57:29;;;;;;;6.60;5.80;;;;;;;24.21;67.51;101294.11;107059;1266;25335;-52
2023/06/19 07:59:58;;;;;;;6.30;5.60;;;;;;;24.17;67.89;101294.05;106852;1259;22517;-50
2023/06/19 08:02:25;;;;;;;7.30;6.40;;;;;;;24.14;68.24;101297.27;107117;1263;25385;-50
2023/06/19 08:04:52;;;;;;;6.60;5.90;;;;;;;24.11;68.49;101299.59;107115;1263;22649;-51
2023/06/19 08:07:19;;;;;;;8.60;6.90;;;;;;;24.09;68.73;101301.52;107016;1254;25341;-52
2023/06/19 08:09:46;;;;;;;7.20;5.90;;;;;;;24.09;68.83;101304.18;106830;1267;25399;-51
2023/06/19 08:12:26;;;;;;;7.30;6.50;;;;;;;24.13;68.85;101309.42;106930;1270;25349;-51
2023/06/19 08:14:53;;;;;;;6.90;6.30;;;;;;;24.13;68.74;101314.66;107082;1262;25360;-51
2023/06/19 08:17:20;;;;;;;6.80;6.10;;;;;;;24.13;68.70;101318.05;106861;1273;25353;-51
2023/06/19 08:19:47;;;;;;;8.30;6.40;;;;;;;24.12;68.65;101317.08;107145;1263;25331;-52
2023/06/19 08:22:14;;;;;;;7.00;6.30;;;;;;;24.11;68.81;101321.54;107116;1263;26191;-51
2023/06/19 08:24:41;;;;;;;10.20;7.10;;;;;;;24.12;68.83;101326.48;107144;1260;25331;-51
2023/06/19 08:27:09;;;;;;;7.50;6.30;;;;;;;24.16;69.00;101333.59;107004;1263;25411;-51
2023/06/19 08:29:36;;;;;;;7.10;6.40;;;;;;;24.22;68.85;101339.37;107070;1263;25363;-51
2023/06/19 08:32:04;;;;;;;7.20;6.40;;;;;;;24.27;68.51;101337.48;106905;1269;25381;-51
2023/06/19 08:34:33;;;;;;;6.00;5.40;;;;;;;24.32;68.19;101342.67;107050;1266;25407;-51
2023/06/19 08:37:00;;;;;;;7.80;5.40;;;;;;;24.37;68.12;101341.76;107098;1263;25356;-51
2023/06/19 08:39:27;;;;;;;6.70;6.00;;;;;;;24.44;67.70;101344.45;107143;1263;25346;-51
2023/06/19 08:41:54;;;;;;;7.40;6.40;;;;;;;24.50;67.39;101341.34;106967;1254;25322;-52
2023/06/19 08:44:22;;;;;;;7.20;5.80;;;;;;;24.57;67.24;101342.44;106947;1257;25347;-51
2023/06/19 08:46:50;;;;;;;6.00;5.40;;;;;;;24.64;66.81;101337.36;106916;1260;25541;-50
2023/06/19 08:49:16;;;;;;;6.10;5.50;;;;;;;24.70;66.65;101338.00;106818;1263;22543;-52
2023/06/19 08:51:43;;;;;;;10.60;5.50;;;;;;;24.77;66.28;101337.70;107071;1260;25230;-53
2023/06/19 08:54:10;;;;;;;6.10;5.20;;;;;;;24.83;65.99;101334.05;107190;1265;25331;-51
2023/06/19 08:56:40;;;;;;;7.10;5.40;;;;;;;24.87;65.27;101338.33;107123;1263;25377;-51
2023/06/19 08:59:11;;;;;;;5.70;5.20;;;;;;;24.89;65.10;101342.27;106905;1266;25356;-52
2023/06/19 09:01:38;;;;;;;;;;;;;;;24.95;65.13;101345.42;107161;1251;25334;-52
2023/06/19 09:04:10;;;;;;;5.10;4.60;;;;;;;25.10;64.78;101348.91;107084;1262;25356;-51
2023/06/19 09:06:51;;;;;;;6.80;5.30;;;;;;;25.19;64.50;101346.66;106902;1263;25404;-52
2023/06/19 09:09:20;;;;;;;6.00;5.50;;;;;;;25.27;64.10;101343.61;107138;1257;25223;-52
2023/06/19 09:12:00;;;;;;;5.50;5.00;;;;;;;25.34;63.81;101349.78;107181;1263;25356;-51
2023/06/19 09:14:38;;;;;;;5.20;4.70;;;;;;;25.38;62.59;101342.73;106816;1260;359722;-51
2023/06/19 09:17:06;;;;;;;6.00;5.00;;;;;;;25.39;62.52;101343.94;107130;1260;22906;-52
2023/06/19 09:19:34;;;;;;;6.20;5.40;;;;;;;25.36;62.95;101346.25;106985;1257;22643;-52
2023/06/19 09:22:01;;;;;;;6.30;5.60;;;;;;;25.46;62.58;101344.63;106758;1259;22542;-51
2023/06/19 09:24:39;;;;;;;7.10;5.60;;;;;;;25.51;62.09;101341.43;107160;1263;25347;-51
2023/06/19 09:27:18;;;;;;;6.10;5.50;;;;;;;25.54;61.95;101339.60;107060;1256;25331;-51
2023/06/19 09:29:48;;;;;;;8.70;5.90;;;;;;;25.58;61.94;101337.88;107070;1254;25280;-52
2023/06/19 09:32:19;;;;;;;5.80;5.20;;;;;;;25.63;61.74;101329.52;107113;1263;25321;-51
2023/06/19 09:34:50;;;;;;;6.90;5.80;;;;;;;25.62;61.28;101326.89;107126;1266;22526;-52
2023/06/19 09:37:28;;;;;;;7.50;6.20;;;;;;;25.60;61.42;101323.88;107199;1263;22557;-52
2023/06/19 09:40:13;;;;;;;5.60;5.10;;;;;;;25.63;61.80;101323.46;106870;1269;25284;-52
2023/06/19 09:42:42;;;;;;;6.30;5.70;;;;;;;25.67;61.56;101324.22;106902;1267;25382;-52
2023/06/19 09:45:18;;;;;;;7.30;5.40;;;;;;;25.73;61.67;101326.41;107031;1263;25360;-51
2023/06/19 09:47:46;;;;;;;7.30;5.10;;;;;;;25.80;61.02;101328.94;107109;1256;22527;-51
2023/06/19 09:50:17;;;;;;;6.20;5.30;;;;;;;25.84;60.45;101333.02;107036;1255;22536;-51
2023/06/19 09:52:47;;;;;;;6.10;5.50;;;;;;;25.89;59.86;101335.39;107019;1264;25404;-52
2023/06/19 09:55:14;;;;;;;8.00;5.40;;;;;;;25.91;59.32;101334.48;107107;1263;25384;-52
2023/06/19 09:57:42;;;;;;;5.90;5.10;;;;;;;25.91;58.58;101332.89;107065;1273;25405;-51
2023/06/19 10:00:12;;;;;;;5.40;4.90;;;;;;;25.90;58.20;101330.88;107094;1256;25353;-51
2023/06/19 10:02:45;;;;;;;5.80;5.20;;;;;;;25.89;57.63;101333.06;107125;1254;25423;-51
2023/06/19 10:05:13;;;;;;;5.70;4.70;;;;;;;25.87;57.29;101333.39;107215;1255;25337;-51
2023/06/19 10:07:44;;;;;;;5.80;5.10;;;;;;;25.84;56.82;101332.83;107049;1263;23907;-52
2023/06/19 10:10:22;;;;;;;5.00;4.60;;;;;;;25.83;56.50;101330.95;107071;1263;23465;-51
2023/06/19 10:12:50;;;;;;;4.60;4.20;;;;;;;25.81;56.70;101333.23;107139;1265;24237;-51
2023/06/19 10:15:20;;;;;;;4.60;4.20;;;;;;;25.82;56.78;101330.34;106999;1265;25359;-51
2023/06/19 10:17:48;;;;;;;5.10;4.20;;;;;;;25.82;56.37;101329.23;107153;1260;25337;-53
2023/06/19 10:20:38;;;;;;;5.60;4.60;;;;;;;25.82;56.10;101326.77;107144;1267;24391;-51
2023/06/19 10:23:22;;;;;;;4.90;4.40;;;;;;;25.79;55.51;101322.02;107146;1264;25380;-51
2023/06/19 10:25:55;;;;;;;4.70;4.30;;;;;;;25.74;55.88;101318.70;106902;1263;24328;-52
2023/06/19 10:28:27;;;;;;;5.20;4.80;;;;;;;25.70;56.42;101316.02;107172;1260;25360;-51
2023/06/19 10:31:07;;;;;;;5.70;5.20;;;;;;;25.66;56.59;101316.69;107114;1263;25474;-51
2023/06/19 10:33:36;;;;;;;8.00;6.00;;;;;;;25.61;56.66;101315.27;107095;1267;22522;-51
2023/06/19 10:36:33;;;;;;;6.40;5.50;;;;;;;25.59;57.32;101314.15;107050;1263;22603;-53
2023/06/19 10:39:00;;;;;;;6.80;6.10;;;;;;;25.61;57.70;101319.52;106776;1260;25353;-52
2023/06/19 10:41:27;;;;;;;6.20;5.70;;;;;;;25.64;58.26;101315.37;106799;1262;25465;-51
2023/06/19 10:44:05;;;;;;;7.00;6.30;;;;;;;25.66;58.15;101317.86;106708;1270;25334;-52
2023/06/19 10:46:33;;;;;;;7.70;5.60;;;;;;;25.68;58.55;101315.27;106688;1270;25356;-51
2023/06/19 10:49:01;;;;;;;6.50;5.90;;;;;;;25.71;58.70;101311.64;106703;1260;24191;-51
2023/06/19 10:51:28;;;;;;;7.20;6.50;;;;;;;25.73;58.65;101313.08;106814;1266;25412;-51
2023/06/19 10:53:56;;;;;;;7.20;5.80;;;;;;;25.73;58.67;101311.32;106758;1272;25350;-51
2023/06/19 10:56:23;;;;;;;7.10;5.50;;;;;;;25.73;59.09;101310.04;106685;1258;25414;-51
2023/06/19 10:58:58;;;;;;;5.70;5.10;;;;;;;25.78;58.61;101307.23;106814;1263;25363;-51
2023/06/19 11:01:34;;;;;;;5.70;5.20;;;;;;;25.76;57.93;101304.48;106736;1272;22524;-51
2023/06/19 11:04:08;;;;;;;6.30;4.90;;;;;;;25.77;57.11;101294.81;106650;1260;24259;-51
2023/06/19 11:06:36;;;;;;;5.90;5.20;;;;;;;25.83;56.89;101294.76;106766;1272;25334;-51
2023/06/19 11:09:04;;;;;;;5.70;4.90;;;;;;;25.85;56.62;101290.51;106763;1260;25617;-51
2023/06/19 11:11:42;;;;;;;5.10;4.60;;;;;;;25.88;56.13;101288.72;106740;1269;25356;-51
2023/06/19 11:14:12;;;;;;;5.30;4.80;;;;;;;25.91;55.87;101280.13;106507;1273;25394;-51
2023/06/19 11:16:43;;;;;;;5.40;4.90;;;;;;;25.93;55.90;101279.05;107058;1266;22586;-52
2023/06/19 11:19:18;;;;;;;5.10;4.60;;;;;;;25.96;55.86;101272.73;107101;1260;22523;-51
2023/06/19 11:21:50;;;;;;;6.00;5.20;;;;;;;26.02;55.69;101274.77;107100;1260;22524;-52
2023/06/19 11:24:17;;;;;;;6.00;5.00;;;;;;;26.09;55.48;101267.55;107059;1255;23116;-52